sensor_id;sensor_type;location;lat;lon;timestamp;pressure;altitude;pressure_sealevel;temperature;humidity
69027;BME280;56080;47.594;19.116;2023-03-13T00:07:23;100430;;;4.39;49.72
69027;BME280;56080;47.594;19.116;2023-03-13T00:17:23;100430;;;4.59;50.17
69027;BME280;56080;47.594;19.116;2023-03-13T00:27:23;100425;;;4.78;50.99
69027;BME280;56080;47.594;19.116;2023-03-13T00:37:24;100421;;;4.95;51.74
69027;BME280;56080;47.594;19.116;2023-03-13T00:47:24;100429;;;4.96;52.52
69027;BME280;56080;47.594;19.116;2023-03-13T00:57:24;100424;;;5.00;52.99
69027;BME280;56080;47.594;19.116;2023-03-13T01:07:27;100405;;;4.99;53.69
69027;BME280;56080;47.594;19.116;2023-03-13T01:17:25;100392;;;5.02;54.31
69027;BME280;56080;47.594;19.116;2023-03-13T01:27:25;100394;;;4.90;55.31
69027;BME280;56080;47.594;19.116;2023-03-13T01:37:25;100363;;;5.07;55.32
69027;BME280;56080;47.594;19.116;2023-03-13T01:57:28;100374;;;5.19;56.11
69027;BME280;56080;47.594;19.116;2023-03-13T02:07:28;100368;;;5.18;56.48
69027;BME280;56080;47.594;19.116;2023-03-13T02:17:27;100370;;;5.07;57.28
69027;BME280;56080;47.594;19.116;2023-03-13T02:27:27;100354;;;4.93;58.52
69027;BME280;56080;47.594;19.116;2023-03-13T02:37:27;100353;;;5.00;58.33
69027;BME280;56080;47.594;19.116;2023-03-13T02:47:28;100345;;;5.18;57.89
69027;BME280;56080;47.594;19.116;2023-03-13T02:57:28;100335;;;5.18;57.99
69027;BME280;56080;47.594;19.116;2023-03-13T03:07:28;100350;;;5.15;58.58
69027;BME280;56080;47.594;19.116;2023-03-13T03:17:29;100378;;;5.06;59.21
69027;BME280;56080;47.594;19.116;2023-03-13T03:27:29;100366;;;4.93;60.26
69027;BME280;56080;47.594;19.116;2023-03-13T03:37:29;100364;;;4.98;60.55
69027;BME280;56080;47.594;19.116;2023-03-13T03:47:30;100354;;;4.96;61.30
69027;BME280;56080;47.594;19.116;2023-03-13T03:57:30;100368;;;4.90;61.81
69027;BME280;56080;47.594;19.116;2023-03-13T04:07:30;100395;;;4.92;62.02
69027;BME280;56080;47.594;19.116;2023-03-13T04:17:30;100394;;;4.92;62.29
69027;BME280;56080;47.594;19.116;2023-03-13T04:27:31;100423;;;4.72;63.50
69027;BME280;56080;47.594;19.116;2023-03-13T04:37:30;100425;;;4.60;64.20
69027;BME280;56080;47.594;19.116;2023-03-13T04:47:30;100413;;;4.33;66.21
69027;BME280;56080;47.594;19.116;2023-03-13T04:57:31;100440;;;4.25;67.08
69027;BME280;56080;47.594;19.116;2023-03-13T05:07:31;100423;;;4.04;68.44
69027;BME280;56080;47.594;19.116;2023-03-13T05:17:31;100446;;;3.94;68.76
69027;BME280;56080;47.594;19.116;2023-03-13T05:27:31;100441;;;3.93;69.43
69027;BME280;56080;47.594;19.116;2023-03-13T05:37:31;100450;;;3.86;69.94
69027;BME280;56080;47.594;19.116;2023-03-13T05:47:31;100457;;;3.96;70.26
69027;BME280;56080;47.594;19.116;2023-03-13T05:57:31;100451;;;3.92;70.54
69027;BME280;56080;47.594;19.116;2023-03-13T06:07:31;100445;;;4.04;70.23
69027;BME280;56080;47.594;19.116;2023-03-13T06:17:32;100453;;;4.29;69.03
69027;BME280;56080;47.594;19.116;2023-03-13T06:27:32;100449;;;4.41;67.90
69027;BME280;56080;47.594;19.116;2023-03-13T06:37:32;100458;;;4.55;67.41
69027;BME280;56080;47.594;19.116;2023-03-13T06:47:32;100456;;;4.74;66.41
69027;BME280;56080;47.594;19.116;2023-03-13T06:57:32;100459;;;4.80;65.40
69027;BME280;56080;47.594;19.116;2023-03-13T07:07:36;100460;;;5.08;64.62
69027;BME280;56080;47.594;19.116;2023-03-13T07:17:43;100444;;;5.04;64.20
69027;BME280;56080;47.594;19.116;2023-03-13T07:27:33;100433;;;5.35;62.86
69027;BME280;56080;47.594;19.116;2023-03-13T07:37:33;100428;;;5.55;60.58
69027;BME280;56080;47.594;19.116;2023-03-13T07:57:34;100418;;;6.12;58.33
69027;BME280;56080;47.594;19.116;2023-03-13T08:07:34;100413;;;6.46;55.94
69027;BME280;56080;47.594;19.116;2023-03-13T08:17:35;100394;;;6.89;53.63
69027;BME280;56080;47.594;19.116;2023-03-13T08:27:35;100374;;;8.39;49.34
69027;BME280;56080;47.594;19.116;2023-03-13T08:37:36;100360;;;9.16;46.44
69027;BME280;56080;47.594;19.116;2023-03-13T08:47:36;100350;;;9.67;44.61
69027;BME280;56080;47.594;19.116;2023-03-13T08:57:37;100345;;;10.34;42.22
69027;BME280;56080;47.594;19.116;2023-03-13T09:07:37;100334;;;10.51;41.64
69027;BME280;56080;47.594;19.116;2023-03-13T09:17:38;100335;;;10.98;41.36
69027;BME280;56080;47.594;19.116;2023-03-13T09:27:39;100324;;;11.07;40.77
69027;BME280;56080;47.594;19.116;2023-03-13T09:37:40;100305;;;11.46;39.31
69027;BME280;56080;47.594;19.116;2023-03-13T09:47:42;100299;;;11.10;39.85
69027;BME280;56080;47.594;19.116;2023-03-13T09:57:45;100300;;;10.30;41.34
69027;BME280;56080;47.594;19.116;2023-03-13T10:07:42;100276;;;11.19;40.08
69027;BME280;56080;47.594;19.116;2023-03-13T10:17:42;100276;;;11.45;39.58
69027;BME280;56080;47.594;19.116;2023-03-13T10:27:44;100248;;;11.79;39.78
69027;BME280;56080;47.594;19.116;2023-03-13T10:37:44;100259;;;11.97;39.96
69027;BME280;56080;47.594;19.116;2023-03-13T10:47:45;100247;;;11.78;40.28
69027;BME280;56080;47.594;19.116;2023-03-13T10:58:01;100242;;;12.25;39.79
69027;BME280;56080;47.594;19.116;2023-03-13T11:07:46;100217;;;12.26;40.05
69027;BME280;56080;47.594;19.116;2023-03-13T11:17:50;100201;;;12.23;39.51
69027;BME280;56080;47.594;19.116;2023-03-13T11:27:53;100198;;;12.21;39.00
69027;BME280;56080;47.594;19.116;2023-03-13T11:37:49;100177;;;12.68;38.89
69027;BME280;56080;47.594;19.116;2023-03-13T11:47:52;100151;;;12.25;39.48
69027;BME280;56080;47.594;19.116;2023-03-13T11:57:53;100147;;;12.82;39.75
69027;BME280;56080;47.594;19.116;2023-03-13T12:07:52;100119;;;12.80;39.34
69027;BME280;56080;47.594;19.116;2023-03-13T12:18:00;100088;;;12.94;39.33
69027;BME280;56080;47.594;19.116;2023-03-13T12:27:55;100085;;;13.23;39.13
69027;BME280;56080;47.594;19.116;2023-03-13T12:48:05;100021;;;13.78;38.09
69027;BME280;56080;47.594;19.116;2023-03-13T12:58:00;100007;;;14.00;38.49
69027;BME280;56080;47.594;19.116;2023-03-13T13:07:56;99998;;;14.31;37.41
69027;BME280;56080;47.594;19.116;2023-03-13T13:18:14;100009;;;14.68;36.95
69027;BME280;56080;47.594;19.116;2023-03-13T13:58:03;99937;;;14.63;38.76
69027;BME280;56080;47.594;19.116;2023-03-13T14:08:05;99944;;;14.81;38.80
69027;BME280;56080;47.594;19.116;2023-03-13T14:18:20;99946;;;14.83;38.67
69027;BME280;56080;47.594;19.116;2023-03-13T14:28:05;99940;;;14.85;38.62
69027;BME280;56080;47.594;19.116;2023-03-13T14:38:06;99954;;;14.56;39.35
69027;BME280;56080;47.594;19.116;2023-03-13T15:08:11;99923;;;14.37;40.96
69027;BME280;56080;47.594;19.116;2023-03-13T15:18:14;99913;;;14.36;41.28
69027;BME280;56080;47.594;19.116;2023-03-13T15:28:15;99894;;;14.38;41.51
69027;BME280;56080;47.594;19.116;2023-03-13T15:38:13;99878;;;14.42;41.65
69027;BME280;56080;47.594;19.116;2023-03-13T15:48:14;99874;;;14.30;42.04
69027;BME280;56080;47.594;19.116;2023-03-13T15:58:14;99872;;;14.23;42.30
69027;BME280;56080;47.594;19.116;2023-03-13T16:08:26;99867;;;14.14;42.25
69027;BME280;56080;47.594;19.116;2023-03-13T16:18:18;99864;;;14.03;43.17
69027;BME280;56080;47.594;19.116;2023-03-13T16:28:17;99849;;;13.89;43.90
69027;BME280;56080;47.594;19.116;2023-03-13T16:38:19;99863;;;13.84;44.33
69027;BME280;56080;47.594;19.116;2023-03-13T16:48:19;99860;;;13.65;45.06
69027;BME280;56080;47.594;19.116;2023-03-13T16:58:20;99875;;;13.57;45.32
69027;BME280;56080;47.594;19.116;2023-03-13T17:08:21;99887;;;13.54;45.49
69027;BME280;56080;47.594;19.116;2023-03-13T17:18:22;99870;;;13.51;45.37
69027;BME280;56080;47.594;19.116;2023-03-13T17:28:23;99883;;;13.40;45.74
69027;BME280;56080;47.594;19.116;2023-03-13T17:38:24;99880;;;13.34;45.83
69027;BME280;56080;47.594;19.116;2023-03-13T17:48:26;99869;;;13.21;46.04
69027;BME280;56080;47.594;19.116;2023-03-13T17:58:26;99872;;;13.05;46.42
69027;BME280;56080;47.594;19.116;2023-03-13T18:08:27;99869;;;12.88;46.83
69027;BME280;56080;47.594;19.116;2023-03-13T18:18:27;99857;;;12.73;47.23
69027;BME280;56080;47.594;19.116;2023-03-13T18:28:28;99851;;;12.54;47.91
69027;BME280;56080;47.594;19.116;2023-03-13T18:38:29;99844;;;12.17;49.19
69027;BME280;56080;47.594;19.116;2023-03-13T18:48:30;99827;;;11.94;49.89
69027;BME280;56080;47.594;19.116;2023-03-13T18:58:31;99833;;;11.77;50.52
69027;BME280;56080;47.594;19.116;2023-03-13T19:08:32;99826;;;11.66;50.93
69027;BME280;56080;47.594;19.116;2023-03-13T19:18:33;99805;;;11.59;51.25
69027;BME280;56080;47.594;19.116;2023-03-13T19:28:34;99789;;;11.61;50.99
69027;BME280;56080;47.594;19.116;2023-03-13T19:38:34;99796;;;11.43;51.37
69027;BME280;56080;47.594;19.116;2023-03-13T19:58:37;99781;;;11.04;51.95
69027;BME280;56080;47.594;19.116;2023-03-13T20:08:37;99789;;;10.85;52.64
69027;BME280;56080;47.594;19.116;2023-03-13T20:18:38;99785;;;10.44;53.81
69027;BME280;56080;47.594;19.116;2023-03-13T20:28:40;99771;;;10.15;53.81
69027;BME280;56080;47.594;19.116;2023-03-13T20:38:39;99769;;;9.98;53.36
69027;BME280;56080;47.594;19.116;2023-03-13T20:48:41;99736;;;9.86;52.70
69027;BME280;56080;47.594;19.116;2023-03-13T20:58:40;99722;;;9.66;52.19
69027;BME280;56080;47.594;19.116;2023-03-13T21:08:43;99699;;;9.50;51.75
69027;BME280;56080;47.594;19.116;2023-03-13T21:18:41;99670;;;9.30;51.47
69027;BME280;56080;47.594;19.116;2023-03-13T21:28:42;99650;;;9.09;51.28
69027;BME280;56080;47.594;19.116;2023-03-13T21:38:43;99632;;;8.88;51.21
69027;BME280;56080;47.594;19.116;2023-03-13T21:48:44;99633;;;8.80;50.78
69027;BME280;56080;47.594;19.116;2023-03-13T21:58:44;99624;;;8.96;50.03
69027;BME280;56080;47.594;19.116;2023-03-13T22:08:46;99608;;;8.82;49.96
69027;BME280;56080;47.594;19.116;2023-03-13T22:18:45;99598;;;8.74;49.73
69027;BME280;56080;47.594;19.116;2023-03-13T22:28:46;99585;;;8.69;49.24
69027;BME280;56080;47.594;19.116;2023-03-13T22:38:47;99578;;;8.62;49.54
69027;BME280;56080;47.594;19.116;2023-03-13T22:48:47;99547;;;8.38;49.51
69027;BME280;56080;47.594;19.116;2023-03-13T22:58:48;99556;;;8.25;49.82
69027;BME280;56080;47.594;19.116;2023-03-13T23:18:49;99523;;;8.28;49.89
69027;BME280;56080;47.594;19.116;2023-03-13T23:28:49;99519;;;8.29;49.93
69027;BME280;56080;47.594;19.116;2023-03-13T23:38:51;99511;;;8.39;49.92
69027;BME280;56080;47.594;19.116;2023-03-13T23:48:51;99508;;;8.32;49.97
69027;BME280;56080;47.594;19.116;2023-03-13T23:58:52;99498;;;8.16;50.35
